Time;durP1;ratioP1;P1;durP2;ratioP2;P2;SDS_P1;SDS_P2;PMS_P1;PMS_P2;Temp;Humidity;BMP_temperature;BMP_pressure;BME280_temperature;BME280_humidity;BME280_pressure;Samples;Min_cycle;Max_cycle;Signal;HPM_P1;HPM_P2
2021/11/01 00:01:06;;;;;;;19.02;3.33;;;;;;;10.22;100.00;99384.94;4981677;28;20037;-83
2021/11/01 00:03:33;;;;;;;12.70;3.63;;;;;;;10.22;100.00;99384.94;4966007;28;20454;-83
2021/11/01 00:05:59;;;;;;;13.77;3.10;;;;;;;10.17;100.00;99378.28;4981113;28;20030;-86
2021/11/01 00:08:24;;;;;;;17.05;3.40;;;;;;;10.18;100.00;99381.78;4987599;28;20061;-84
2021/11/01 00:10:50;;;;;;;12.23;3.85;;;;;;;10.15;100.00;99387.53;5006896;28;20045;-82
2021/11/01 00:13:15;;;;;;;16.42;4.18;;;;;;;10.13;100.00;99393.13;4999334;28;20057;-84
2021/11/01 00:15:41;;;;;;;18.70;4.00;;;;;;;10.14;100.00;99388.56;4983565;28;20080;-82
2021/11/01 00:18:07;;;;;;;17.13;4.35;;;;;;;10.12;100.00;99383.41;4964467;28;20515;-83
2021/11/01 00:20:33;;;;;;;23.35;3.72;;;;;;;10.14;100.00;99384.03;5001383;28;20506;-84
2021/11/01 00:23:02;;;;;;;14.00;3.25;;;;;;;10.10;100.00;99380.09;4964872;28;20130;-82
2021/11/01 00:25:29;;;;;;;16.20;3.38;;;;;;;10.13;100.00;99378.88;4984812;28;20038;-82
2021/11/01 00:27:56;;;;;;;20.17;4.28;;;;;;;10.10;100.00;99380.09;4980389;28;20057;-85
2021/11/01 00:30:23;;;;;;;15.35;3.83;;;;;;;10.06;100.00;99378.81;4985334;28;20062;-84
2021/11/01 00:32:49;;;;;;;14.63;3.92;;;;;;;10.08;100.00;99382.16;5001977;28;20038;-84
2021/11/01 00:35:15;;;;;;;15.27;3.40;;;;;;;10.04;100.00;99391.63;5000027;28;20034;-84
2021/11/01 00:37:41;;;;;;;19.23;4.18;;;;;;;10.04;100.00;99391.63;4983110;28;20120;-84
2021/11/01 00:40:07;;;;;;;16.25;4.03;;;;;;;9.99;100.00;99383.31;5002296;28;20168;-85
2021/11/01 00:42:32;;;;;;;24.38;4.75;;;;;;;10.00;100.00;99392.19;4983841;28;20048;-83
2021/11/01 00:44:59;;;;;;;13.30;3.83;;;;;;;9.92;100.00;99385.09;4992087;28;20042;-84
2021/11/01 00:47:26;;;;;;;18.08;5.00;;;;;;;9.98;100.00;99388.84;4993781;28;20165;-84
2021/11/01 00:49:54;;;;;;;13.63;3.58;;;;;;;9.98;100.00;99384.31;4993392;28;20045;-84
2021/11/01 00:52:28;;;;;;;14.83;3.77;;;;;;;9.92;100.00;99382.44;4975934;28;20050;-83
2021/11/01 00:54:59;;;;;;;15.45;3.00;;;;;;;9.89;100.00;99377.47;4975459;28;20383;-85
2021/11/01 00:57:26;;;;;;;16.27;3.45;;;;;;;9.88;100.00;99382.00;4985711;28;20038;-83
2021/11/01 00:59:53;;;;;;;14.82;3.20;;;;;;;9.86;100.00;99373.31;4999296;28;20037;-82
2021/11/01 01:02:19;;;;;;;12.02;3.58;;;;;;;9.86;100.00;99384.03;5002037;28;20068;-86
2021/11/01 01:04:44;;;;;;;14.35;2.65;;;;;;;9.83;100.00;99379.06;4998865;28;20445;-83
2021/11/01 01:07:10;;;;;;;10.68;2.42;;;;;;;9.81;100.00;99372.22;4984631;28;20522;-85
2021/11/01 01:09:35;;;;;;;12.05;3.08;;;;;;;9.79;100.00;99376.97;4994545;28;20045;-83
2021/11/01 01:12:02;;;;;;;12.90;3.10;;;;;;;9.80;100.00;99374.09;4984336;28;20042;-83
2021/11/01 01:14:30;;;;;;;14.13;2.70;;;;;;;9.74;100.00;99379.41;4979769;28;20046;-86
2021/11/01 01:16:57;;;;;;;14.55;2.55;;;;;;;9.71;100.00;99376.06;5008450;28;20034;-83
2021/11/01 01:19:24;;;;;;;11.93;2.63;;;;;;;9.71;100.00;99375.25;4997977;28;20069;-84
2021/11/01 01:24:33;;;;;;;10.27;2.80;;;;;;;9.68;100.00;99371.09;5000110;28;20045;-86
2021/11/01 01:27:00;;;;;;;11.80;3.20;;;;;;;9.67;100.00;99364.09;4981343;28;20046;-84
2021/11/01 01:29:25;;;;;;;11.82;2.58;;;;;;;9.61;100.00;99369.38;5003453;28;20038;-83
2021/11/01 01:31:51;;;;;;;16.42;3.53;;;;;;;9.64;100.00;99361.81;4990705;28;20426;-85
2021/11/01 01:34:17;;;;;;;14.60;3.58;;;;;;;9.61;100.00;99354.16;5004325;28;20335;-85
2021/11/01 01:36:45;;;;;;;15.15;3.05;;;;;;;9.62;100.00;99352.31;4982382;28;20038;-83
2021/11/01 01:39:11;;;;;;;14.27;2.75;;;;;;;9.58;100.00;99354.56;4988740;28;20406;-84
2021/11/01 01:41:36;;;;;;;11.10;2.72;;;;;;;9.57;100.00;99354.72;4988464;28;20042;-82
2021/11/01 01:44:02;;;;;;;12.88;2.40;;;;;;;9.54;100.00;99357.81;4982482;28;20045;-83
2021/11/01 01:46:30;;;;;;;15.13;3.03;;;;;;;9.48;100.00;99354.88;4987997;28;20042;-84
2021/11/01 01:48:56;;;;;;;15.57;3.25;;;;;;;9.54;100.00;99353.28;4989904;28;20037;-84
2021/11/01 01:51:25;;;;;;;9.95;2.67;;;;;;;9.52;100.00;99360.66;4986202;28;20068;-84
2021/11/01 01:53:51;;;;;;;13.38;2.85;;;;;;;9.51;100.00;99358.19;4995565;28;20160;-85
2021/11/01 01:56:17;;;;;;;15.35;3.67;;;;;;;9.47;100.00;99355.91;5005747;28;20056;-85
2021/11/01 01:58:49;;;;;;;16.27;3.20;;;;;;;9.43;100.00;99351.09;4982572;28;20053;-85
2021/11/01 02:01:15;;;;;;;10.50;2.63;;;;;;;9.40;100.00;99351.47;5000642;28;20037;-83
2021/11/01 02:03:45;;;;;;;12.35;2.75;;;;;;;9.37;100.00;99351.88;5001592;28;20030;-84
2021/11/01 02:06:40;;;;;;;10.40;3.20;;;;;;;9.34;100.00;99344.22;4989625;28;20125;-82
2021/11/01 02:09:15;;;;;;;11.98;2.92;;;;;;;9.35;100.00;99352.09;4974043;28;20069;-83
2021/11/01 02:11:45;;;;;;;13.60;2.80;;;;;;;9.28;100.00;99348.50;4996519;28;20049;-86
2021/11/01 02:14:12;;;;;;;14.40;3.17;;;;;;;9.24;100.00;99339.19;4993234;28;20491;-85
2021/11/01 02:16:39;;;;;;;15.65;2.60;;;;;;;9.23;100.00;99340.19;4971391;28;20376;-83
2021/11/01 02:19:10;;;;;;;9.00;2.95;;;;;;;9.21;100.00;99340.41;4991680;28;20264;-84
2021/11/01 02:22:01;;;;;;;15.35;2.58;;;;;;;9.21;100.00;99337.72;4962582;28;20042;-83
2021/11/01 02:24:38;;;;;;;12.48;2.58;;;;;;;9.17;100.00;99328.41;5001017;28;20034;-84
2021/11/01 02:27:09;;;;;;;12.88;2.55;;;;;;;9.18;100.00;99330.09;4972451;28;20050;-85
2021/11/01 02:29:34;;;;;;;10.05;2.85;;;;;;;9.17;100.00;99331.09;4998986;28;20042;-83
2021/11/01 02:32:01;;;;;;;12.38;3.50;;;;;;;9.16;100.00;99332.13;4997314;28;20049;-84
2021/11/01 02:34:27;;;;;;;11.50;2.17;;;;;;;9.13;100.00;99320.97;4997896;28;20045;-83
2021/11/01 02:36:52;;;;;;;12.43;3.15;;;;;;;9.17;100.00;99320.38;4972210;28;20045;-84
2021/11/01 02:39:19;;;;;;;10.52;2.50;;;;;;;9.17;100.00;99324.91;4990967;28;20060;-85
2021/11/01 02:41:45;;;;;;;10.55;2.67;;;;;;;9.18;100.00;99315.88;4982310;28;20053;-82
2021/11/01 02:44:10;;;;;;;12.00;2.60;;;;;;;9.11;100.00;99323.00;5006033;28;21161;-85
2021/11/01 02:46:38;;;;;;;11.52;2.60;;;;;;;9.10;100.00;99318.69;4980340;28;20041;-84
2021/11/01 02:49:04;;;;;;;13.52;2.60;;;;;;;9.14;100.00;99323.44;4974062;28;20034;-83
2021/11/01 02:51:31;;;;;;;13.73;2.75;;;;;;;9.11;100.00;99323.00;4978726;28;20126;-82
2021/11/01 02:53:59;;;;;;;7.47;2.20;;;;;;;9.09;100.00;99323.22;4972014;28;20043;-85
2021/11/01 02:56:25;;;;;;;16.95;2.90;;;;;;;9.10;100.00;99322.19;4990496;28;20045;-84
2021/11/01 02:58:51;;;;;;;13.82;3.08;;;;;;;9.11;100.00;99310.44;5008823;28;20057;-86
2021/11/01 03:01:18;;;;;;;9.60;2.45;;;;;;;9.09;100.00;99315.19;4977865;28;20026;-85
2021/11/01 03:03:44;;;;;;;10.85;2.65;;;;;;;9.02;100.00;99311.59;5007764;28;20494;-84
2021/11/01 03:06:12;;;;;;;13.48;2.70;;;;;;;9.04;100.00;99305.03;4989831;28;20080;-83
2021/11/01 03:08:38;;;;;;;13.13;2.50;;;;;;;8.99;100.00;99301.28;4995636;28;20116;-85
2021/11/01 03:11:05;;;;;;;12.13;2.45;;;;;;;9.00;100.00;99297.56;4991327;28;20065;-85
2021/11/01 03:13:34;;;;;;;9.35;2.13;;;;;;;9.01;100.00;99305.41;5007065;28;20042;-83
2021/11/01 03:16:04;;;;;;;14.10;3.20;;;;;;;8.99;100.00;99282.53;4995775;28;20037;-83
2021/11/01 03:18:36;;;;;;;10.50;2.33;;;;;;;9.00;100.00;99293.03;5010603;28;20072;-83
2021/11/01 03:21:07;;;;;;;10.63;2.25;;;;;;;8.94;100.00;99303.69;5012886;28;20361;-85
2021/11/01 03:23:33;;;;;;;12.35;2.08;;;;;;;8.96;100.00;99298.97;4978069;28;20046;-85
2021/11/01 03:26:05;;;;;;;14.82;2.08;;;;;;;8.92;100.00;99298.53;4994799;28;20042;-85
2021/11/01 03:28:33;;;;;;;9.00;2.35;;;;;;;8.94;100.00;99303.69;4998018;28;20108;-84
2021/11/01 03:31:01;;;;;;;10.18;2.40;;;;;;;8.89;100.00;99295.38;5013206;28;20120;-83
2021/11/01 03:33:30;;;;;;;9.98;2.15;;;;;;;8.89;100.00;99301.59;4993638;28;20403;-83
2021/11/01 03:35:56;;;;;;;;;;;;;;;8.93;100.00;99318.09;4996966;28;20127;-84
2021/11/01 03:38:22;;;;;;;14.75;2.35;;;;;;;8.84;100.00;99312.03;4994865;28;19940;-83
2021/11/01 03:40:49;;;;;;;9.25;2.03;;;;;;;8.87;100.00;99319.66;4994087;28;20033;-83
2021/11/01 03:43:28;;;;;;;9.82;2.40;;;;;;;8.91;100.00;99322.78;5010674;28;20042;-83
2021/11/01 03:45:56;;;;;;;11.73;2.30;;;;;;;8.93;100.00;99320.75;5011822;28;20042;-83
2021/11/01 03:48:22;;;;;;;11.48;2.30;;;;;;;8.95;100.00;99324.09;5010154;28;20042;-85
2021/11/01 03:51:04;;;;;;;9.52;2.33;;;;;;;8.98;100.00;99326.38;4993356;28;20399;-83
2021/11/01 03:53:29;;;;;;;8.63;2.17;;;;;;;9.00;100.00;99327.81;5003795;28;20062;-85
2021/11/01 03:55:55;;;;;;;12.73;2.90;;;;;;;9.01;100.00;99334.03;5011056;28;20072;-83
2021/11/01 03:58:21;;;;;;;9.55;2.42;;;;;;;9.00;100.00;99330.50;5001817;28;20176;-84
2021/11/01 04:00:46;;;;;;;12.75;2.47;;;;;;;9.05;100.00;99340.63;4983007;28;20035;-85
2021/11/01 04:03:12;;;;;;;8.05;1.90;;;;;;;9.08;100.00;99329.56;5000444;28;20099;-83
2021/11/01 04:05:38;;;;;;;11.57;2.35;;;;;;;9.08;100.00;99332.22;4966795;28;20065;-84
2021/11/01 04:08:04;;;;;;;10.30;2.40;;;;;;;9.08;100.00;99326.88;4985342;28;20037;-83
2021/11/01 04:10:29;;;;;;;8.65;2.30;;;;;;;9.10;100.00;99319.50;4984118;28;20052;-85
2021/11/01 04:12:55;;;;;;;8.90;1.67;;;;;;;9.10;100.00;99319.50;5002915;28;20406;-82
2021/11/01 04:15:25;;;;;;;9.55;2.40;;;;;;;9.10;100.00;99322.19;4969337;28;20100;-83
2021/11/01 04:18:03;;;;;;;9.35;2.22;;;;;;;9.12;100.00;99317.47;5000686;28;20121;-84
2021/11/01 04:20:33;;;;;;;11.37;2.43;;;;;;;9.12;100.00;99320.16;4985066;28;20038;-86
2021/11/01 04:23:06;;;;;;;8.07;2.17;;;;;;;9.13;100.00;99326.31;4983305;28;20510;-82
2021/11/01 04:25:33;;;;;;;10.60;2.45;;;;;;;9.16;100.00;99318.72;5003650;28;20199;-84
2021/11/01 04:28:00;;;;;;;11.40;2.00;;;;;;;9.15;100.00;99322.44;4983567;28;20509;-82
2021/11/01 04:30:29;;;;;;;12.45;2.05;;;;;;;9.14;100.00;99336.00;4999568;28;20059;-84
2021/11/01 04:32:57;;;;;;;10.95;2.28;;;;;;;9.18;100.00;99335.44;5002429;28;20065;-85
2021/11/01 04:35:34;;;;;;;8.93;2.00;;;;;;;9.16;100.00;99339.31;5003152;28;20111;-85
2021/11/01 04:40:55;;;;;;;10.93;2.50;;;;;;;9.16;100.00;99329.44;4997833;28;20442;-82
2021/11/01 04:54:18;;;;;;;7.25;2.25;;;;;;;9.09;100.00;99323.22;4968885;28;20502;-85
2021/11/01 04:56:44;;;;;;;10.68;2.05;;;;;;;9.11;100.00;99329.19;4998058;28;20052;-84
2021/11/01 04:59:10;;;;;;;10.20;2.42;;;;;;;9.14;100.00;99326.13;5000102;28;20149;-84
2021/11/01 05:01:39;;;;;;;9.63;1.98;;;;;;;9.14;100.00;99325.28;5001992;28;20546;-85
2021/11/01 05:04:07;;;;;;;6.55;2.10;;;;;;;9.17;100.00;99331.09;4986556;28;20037;-83
2021/11/01 05:06:35;;;;;;;11.63;2.35;;;;;;;9.16;100.00;99326.75;5000165;28;20041;-84
2021/11/01 05:14:19;;;;;;;9.35;1.73;;;;;;;9.17;100.00;99322.22;4998918;28;20706;-83
2021/11/01 05:19:26;;;;;;;7.68;1.65;;;;;;;9.12;100.00;99320.16;4998802;28;20029;-83
2021/11/01 05:30:12;;;;;;;10.63;2.83;;;;;;;9.15;100.00;99327.78;4962279;28;20076;-83
2021/11/01 05:32:40;;;;;;;9.65;2.25;;;;;;;9.16;100.00;99317.91;5000538;28;20089;-84
2021/11/01 05:35:07;;;;;;;7.63;2.00;;;;;;;9.14;100.00;99320.75;4982933;28;20046;-84
2021/11/01 05:37:34;;;;;;;7.20;2.35;;;;;;;9.15;100.00;99314.41;4999325;28;20037;-84
2021/11/01 05:39:59;;;;;;;7.82;2.45;;;;;;;9.16;100.00;99313.38;4999575;28;20056;-85
2021/11/01 05:42:25;;;;;;;9.18;2.42;;;;;;;9.12;100.00;99311.25;5002515;28;20033;-83
2021/11/01 05:44:51;;;;;;;7.65;2.13;;;;;;;9.12;100.00;99300.56;5001377;28;20069;-84
2021/11/01 05:47:17;;;;;;;10.25;1.92;;;;;;;9.10;100.00;99319.50;5000632;28;20054;-84
2021/11/01 05:49:42;;;;;;;9.68;2.10;;;;;;;9.11;100.00;99313.13;4995245;28;20076;-84
2021/11/01 05:52:17;;;;;;;8.80;2.15;;;;;;;9.08;100.00;99321.53;4997853;28;20431;-83
2021/11/01 05:54:43;;;;;;;8.68;1.60;;;;;;;9.08;100.00;99320.72;4983116;28;20118;-83
2021/11/01 05:57:16;;;;;;;11.77;2.53;;;;;;;9.07;100.00;99314.53;4999452;28;20057;-82
2021/11/01 06:02:39;;;;;;;9.32;2.30;;;;;;;9.08;100.00;99321.53;4999530;28;20050;-83
2021/11/01 06:10:35;;;;;;;5.75;1.88;;;;;;;9.05;100.00;99316.56;4968137;28;20054;-82
2021/11/01 06:15:45;;;;;;;10.52;2.22;;;;;;;9.02;100.00;99298.22;4966958;28;20042;-84
2021/11/01 06:18:10;;;;;;;9.27;2.55;;;;;;;9.00;100.00;99308.28;4968851;28;20074;-84
2021/11/01 06:20:36;;;;;;;7.60;2.47;;;;;;;8.99;100.00;99314.66;4997054;28;20076;-85
2021/11/01 06:23:02;;;;;;;11.27;2.05;;;;;;;9.01;100.00;99320.66;4968620;28;20045;-86
2021/11/01 06:25:29;;;;;;;11.27;2.15;;;;;;;9.00;100.00;99308.28;4979391;28;20049;-85
2021/11/01 06:27:55;;;;;;;11.85;3.10;;;;;;;9.03;100.00;99318.59;4981928;28;20491;-83
2021/11/01 06:30:25;;;;;;;11.45;2.40;;;;;;;9.04;100.00;99333.66;4995533;28;20074;-83
2021/11/01 06:43:29;;;;;;;10.48;2.53;;;;;;;8.98;100.00;99345.09;4993999;28;20050;-81
2021/11/01 06:46:12;;;;;;;12.55;2.20;;;;;;;8.98;100.00;99353.13;4998558;28;20046;-86
2021/11/01 07:17:34;;;;;;;11.27;1.80;;;;;;;9.11;100.00;99400.59;4983633;28;20461;-82
2021/11/01 07:20:13;;;;;;;10.43;2.13;;;;;;;9.11;100.00;99400.59;4969538;28;20041;-85
2021/11/01 08:47:37;;;;;;;8.50;2.10;;;;;;;9.91;98.88;99448.59;4983266;28;20121;-87
2021/11/01 09:18:47;;;;;;;8.32;2.00;;;;;;;10.34;96.16;99434.31;4983326;28;20041;-84
2021/11/01 09:24:02;;;;;;;8.60;2.45;;;;;;;10.39;95.28;99431.91;4973581;28;20487;-87
2021/11/01 09:26:36;;;;;;;6.85;2.10;;;;;;;10.49;95.65;99437.72;4996824;28;20153;-83
2021/11/01 09:29:14;;;;;;;7.13;1.80;;;;;;;10.53;94.11;99427.41;4966783;28;20068;-82
2021/11/01 09:42:21;;;;;;;10.70;2.05;;;;;;;10.74;92.75;99430.03;4997614;28;20045;-83
2021/11/01 09:44:48;;;;;;;8.05;1.88;;;;;;;10.74;92.71;99426.53;4971277;28;20418;-85
2021/11/01 09:47:14;;;;;;;7.38;1.95;;;;;;;10.78;92.61;99427.78;4992586;28;20045;-84
2021/11/01 09:49:40;;;;;;;10.60;1.70;;;;;;;10.84;92.75;99429.66;5009914;28;20053;-87
2021/11/01 09:52:08;;;;;;;11.38;2.28;;;;;;;10.85;91.79;99434.00;5008282;28;20045;-84
2021/11/01 09:54:37;;;;;;;6.68;1.65;;;;;;;10.89;92.19;99429.91;4972594;28;20534;-87
2021/11/01 09:57:09;;;;;;;8.85;2.13;;;;;;;10.93;92.36;99427.63;5010634;28;20041;-85
2021/11/01 09:59:39;;;;;;;10.20;2.33;;;;;;;10.89;90.61;99427.22;5009344;28;20113;-82
2021/11/01 10:02:11;;;;;;;8.90;1.75;;;;;;;10.93;90.92;99427.63;5008563;28;20100;-84
2021/11/01 10:04:38;;;;;;;4.68;1.90;;;;;;;11.06;92.01;99427.69;5001740;28;20402;-83
2021/11/01 10:07:26;;;;;;;10.20;1.77;;;;;;;11.18;91.23;99423.41;5008632;28;20046;-87
2021/11/01 10:10:09;;;;;;;8.25;1.60;;;;;;;11.16;88.89;99432.69;4988719;28;20060;-83
2021/11/01 10:12:37;;;;;;;11.60;2.03;;;;;;;11.18;89.95;99426.09;5014045;28;20402;-83
2021/11/01 10:18:01;;;;;;;5.35;1.52;;;;;;;11.34;90.88;99432.97;5009835;28;20551;-87
2021/11/01 10:20:28;;;;;;;10.38;2.00;;;;;;;11.38;89.16;99428.84;5008702;28;20034;-86
2021/11/01 10:22:54;;;;;;;7.13;1.40;;;;;;;11.32;88.44;99426.97;4986562;28;20033;-89
2021/11/01 10:25:21;;;;;;;10.30;1.98;;;;;;;11.32;87.55;99426.97;5003758;28;20120;-89
2021/11/01 10:27:57;;;;;;;7.97;1.70;;;;;;;11.28;87.87;99414.97;4997106;28;20041;-84
2021/11/01 10:30:28;;;;;;;7.50;1.58;;;;;;;11.28;85.95;99404.25;4997179;28;20064;-89
2021/11/01 10:32:55;;;;;;;6.65;1.73;;;;;;;11.30;86.37;99418.28;4991356;28;20402;-85
2021/11/01 10:35:24;;;;;;;7.85;2.00;;;;;;;11.33;86.81;99419.72;4992222;28;20068;-83
2021/11/01 10:40:51;;;;;;;4.53;1.23;;;;;;;11.46;88.40;99435.88;5000402;28;20042;-85
2021/11/01 10:57:25;;;;;;;8.55;2.10;;;;;;;11.64;87.52;99436.13;4990597;28;20056;-83
2021/11/01 11:11:09;;;;;;;6.07;1.90;;;;;;;11.80;85.71;99426.03;5005119;28;20056;-86
2021/11/01 11:13:49;;;;;;;10.18;2.63;;;;;;;11.87;86.42;99440.31;5005016;28;20061;-85
2021/11/01 11:16:39;;;;;;;7.25;1.60;;;;;;;11.85;84.36;99423.53;4974072;28;20038;-87
2021/11/01 11:19:18;;;;;;;4.95;1.15;;;;;;;11.92;85.09;99427.91;5007877;28;20042;-86
2021/11/01 11:27:00;;;;;;;4.90;1.50;;;;;;;11.82;82.41;99430.13;5000221;28;20039;-85
2021/11/01 11:50:43;;;;;;;4.18;1.00;;;;;;;12.08;81.21;99423.16;5004754;28;20042;-87
2021/11/01 11:53:16;;;;;;;6.75;1.48;;;;;;;12.12;82.37;99430.63;4973957;28;20535;-87
2021/11/01 11:55:57;;;;;;;6.80;1.52;;;;;;;12.13;82.19;99432.25;4987914;28;20414;-86
2021/11/01 11:58:41;;;;;;;7.32;1.75;;;;;;;12.15;81.45;99437.44;5006569;28;20046;-83
2021/11/01 12:01:30;;;;;;;6.50;1.35;;;;;;;12.39;82.96;99426.03;5002600;28;20045;-84
2021/11/01 12:03:59;;;;;;;6.60;1.20;;;;;;;12.42;78.06;99432.84;4974127;28;20042;-85
2021/11/01 12:06:50;;;;;;;5.15;1.50;;;;;;;12.53;80.49;99431.41;4978121;28;20338;-85
2021/11/01 12:09:21;;;;;;;5.45;1.23;;;;;;;12.64;80.97;99428.88;4983731;28;20042;-87
2021/11/01 12:17:29;;;;;;;5.85;1.48;;;;;;;12.85;78.06;99426.97;5005456;28;20031;-85
2021/11/01 12:20:00;;;;;;;6.55;1.20;;;;;;;12.82;78.19;99425.50;4974248;28;20054;-88
2021/11/01 12:22:33;;;;;;;3.78;1.48;;;;;;;12.95;78.67;99426.53;5004321;28;20320;-83
2021/11/01 12:25:02;;;;;;;5.30;1.20;;;;;;;12.90;77.28;99424.47;4989245;28;20041;-82
2021/11/01 12:27:30;;;;;;;6.30;1.75;;;;;;;12.81;76.89;99429.25;4990005;28;20042;-86
2021/11/01 12:29:55;;;;;;;5.18;1.33;;;;;;;12.83;78.57;99424.50;4966681;28;20121;-84
2021/11/01 12:32:22;;;;;;;3.45;1.15;;;;;;;12.84;77.82;99415.38;4970445;28;20444;-84
2021/11/01 12:35:03;;;;;;;6.28;1.38;;;;;;;12.83;77.08;99426.34;4956190;28;20251;-85
2021/11/01 12:37:36;;;;;;;6.45;1.40;;;;;;;12.70;76.59;99427.22;4982525;28;20057;-83
2021/11/01 12:40:22;;;;;;;2.95;1.30;;;;;;;12.65;77.39;99422.44;5008381;28;20044;-88
2021/11/01 12:48:13;;;;;;;6.53;1.20;;;;;;;12.62;79.39;99430.13;5005954;28;20041;-83
2021/11/01 12:59:05;;;;;;;3.95;1.10;;;;;;;12.56;77.36;99425.59;4990668;28;20550;-83
2021/11/01 13:01:30;;;;;;;7.07;1.98;;;;;;;12.52;79.51;99435.13;4990005;28;20050;-83
2021/11/01 13:04:30;;;;;;;5.75;1.48;;;;;;;12.47;79.06;99445.69;5007659;28;20634;-88
2021/11/01 13:09:39;;;;;;;6.95;1.55;;;;;;;12.39;77.47;99439.47;5003672;28;20108;-86
2021/11/01 13:15:05;;;;;;;5.25;1.42;;;;;;;12.54;77.82;99438.41;4996202;28;20053;-82
2021/11/01 13:17:55;;;;;;;5.97;1.75;;;;;;;12.58;77.55;99436.97;4996739;28;20046;-88
2021/11/01 13:20:23;;;;;;;5.88;1.77;;;;;;;12.66;77.57;99444.84;4976904;28;20400;-85
2021/11/01 13:22:52;;;;;;;4.18;1.23;;;;;;;12.67;74.41;99435.72;4963433;28;20042;-86
2021/11/01 13:25:30;;;;;;;5.03;1.05;;;;;;;12.68;73.13;99442.75;5004937;28;20038;-83
2021/11/01 13:28:23;;;;;;;5.38;1.27;;;;;;;12.92;75.97;99443.94;4997312;28;20082;-85
2021/11/01 13:38:56;;;;;;;5.40;1.30;;;;;;;12.97;75.09;99430.63;5006006;28;20092;-86
2021/11/01 13:41:30;;;;;;;5.88;1.40;;;;;;;12.97;74.02;99437.88;4995299;28;20045;-86
2021/11/01 13:44:26;;;;;;;3.55;0.80;;;;;;;12.98;74.21;99432.31;4995367;28;20161;-87
2021/11/01 13:46:57;;;;;;;3.35;1.17;;;;;;;12.97;71.82;99441.41;4974122;28;20316;-85
2021/11/01 13:49:27;;;;;;;5.10;0.90;;;;;;;12.97;72.48;99448.66;4989621;28;20057;-83
2021/11/01 13:51:53;;;;;;;3.92;1.15;;;;;;;13.08;72.15;99437.22;5006085;28;20034;-82
2021/11/01 13:56:52;;;;;;;6.30;1.40;;;;;;;13.00;73.13;99426.69;4974137;28;20499;-82
2021/11/01 14:02:30;;;;;;;4.18;0.95;;;;;;;13.11;72.10;99415.25;4999656;28;20128;-85
2021/11/01 14:28:43;;;;;;;5.18;1.55;;;;;;;13.41;77.10;99420.94;5006806;28;20052;-84
2021/11/01 15:16:22;;;;;;;8.90;2.00;;;;;;;12.72;77.15;99427.03;5000873;28;20117;-86
2021/11/01 15:19:04;;;;;;;8.07;2.05;;;;;;;12.73;79.77;99429.47;4987112;28;20060;-85
2021/11/01 16:15:10;;;;;;;7.32;1.77;;;;;;;12.02;78.40;99449.00;4988496;28;20038;-84
2021/11/01 16:18:12;;;;;;;7.90;2.92;;;;;;;11.47;82.91;99457.16;5004861;28;20121;-85
2021/11/01 16:20:38;;;;;;;8.15;2.70;;;;;;;11.42;82.49;99459.66;5005164;28;20069;-86
2021/11/01 16:25:33;;;;;;;6.97;2.58;;;;;;;11.35;82.32;99457.97;5011437;28;20064;-86
2021/11/01 16:27:58;;;;;;;10.10;2.45;;;;;;;11.28;83.46;99460.63;4982502;28;20482;-84
2021/11/01 16:30:26;;;;;;;4.07;1.70;;;;;;;11.23;82.59;99461.22;5007408;28;20121;-84
2021/11/01 16:32:59;;;;;;;7.30;2.10;;;;;;;11.24;84.14;99460.19;4978592;28;20133;-84
2021/11/01 16:35:31;;;;;;;8.65;2.75;;;;;;;11.16;82.97;99462.22;5011795;28;20479;-84
2021/11/01 16:40:27;;;;;;;9.13;3.40;;;;;;;11.16;84.51;99462.22;5008225;28;20042;-86
2021/11/01 16:42:53;;;;;;;10.57;4.57;;;;;;;11.14;85.06;99462.44;4988332;28;20030;-83
2021/11/01 16:45:30;;;;;;;7.18;2.67;;;;;;;11.15;85.15;99463.25;4990063;28;20041;-84
2021/11/01 16:47:58;;;;;;;7.35;1.90;;;;;;;11.12;84.34;99458.28;4979094;28;20046;-84
2021/11/01 16:50:23;;;;;;;7.60;2.13;;;;;;;11.05;84.69;99464.47;4993782;28;20073;-82
2021/11/01 16:52:49;;;;;;;7.40;2.08;;;;;;;10.99;84.76;99457.22;5009322;28;20403;-84
2021/11/01 16:55:21;;;;;;;10.20;2.80;;;;;;;10.98;85.33;99468.94;5007820;28;20073;-87
2021/11/01 16:57:53;;;;;;;8.02;2.22;;;;;;;10.91;85.75;99462.75;5010297;28;20626;-84
2021/11/01 17:03:11;;;;;;;7.28;1.70;;;;;;;10.84;85.88;99461.84;5006630;28;20553;-83
2021/11/01 17:21:35;;;;;;;8.98;2.13;;;;;;;10.68;86.79;99451.47;5006287;28;20076;-84
2021/11/01 17:26:40;;;;;;;9.35;2.72;;;;;;;10.56;88.25;99451.19;5007242;28;20057;-84
2021/11/01 17:29:31;;;;;;;6.32;2.05;;;;;;;10.54;87.95;99451.38;5005441;28;20189;-86
2021/11/01 18:41:05;;;;;;;11.48;4.90;;;;;;;10.01;89.47;99493.00;4986039;28;20123;-86
2021/11/01 18:52:06;;;;;;;8.93;3.05;;;;;;;9.97;88.33;99497.91;5004760;28;20076;-85
2021/11/01 18:54:35;;;;;;;9.07;3.42;;;;;;;9.97;88.46;99502.44;5002531;28;20068;-83
2021/11/01 18:57:03;;;;;;;11.23;4.55;;;;;;;9.95;87.58;99499.94;5004570;28;20129;-86
2021/11/01 18:59:35;;;;;;;6.07;2.90;;;;;;;9.97;88.54;99487.19;4987630;28;20041;-85
2021/11/01 19:04:42;;;;;;;5.32;2.45;;;;;;;9.91;87.56;99498.69;5001197;28;20117;-83
2021/11/01 19:07:19;;;;;;;6.65;2.13;;;;;;;9.92;87.74;99497.66;5000524;28;20858;-85
2021/11/01 19:13:31;;;;;;;7.07;2.20;;;;;;;9.98;87.37;99514.81;4982156;28;20097;-83
2021/11/01 20:04:47;;;;;;;6.72;2.40;;;;;;;9.79;91.54;99521.66;4978880;28;20096;-87
2021/11/01 20:12:42;;;;;;;4.78;1.38;;;;;;;9.69;92.67;99517.41;4983169;28;20154;-85
2021/11/01 21:27:17;;;;;;;6.13;2.60;;;;;;;8.94;99.96;99486.44;4977076;28;20069;-85
2021/11/01 21:29:42;;;;;;;4.25;1.80;;;;;;;8.88;100.00;99475.66;5010505;28;20277;-86
2021/11/01 21:32:08;;;;;;;4.20;1.90;;;;;;;8.89;100.00;99469.28;4992110;28;20049;-86
2021/11/01 21:34:38;;;;;;;6.63;1.88;;;;;;;8.82;100.00;99472.69;4993197;28;20034;-85
2021/11/01 21:37:08;;;;;;;6.38;2.80;;;;;;;8.84;100.00;99469.03;5008745;28;20041;-84
2021/11/01 21:39:34;;;;;;;5.97;2.70;;;;;;;8.83;100.00;99468.16;5009295;28;20030;-88
2021/11/01 21:42:00;;;;;;;9.02;3.35;;;;;;;8.77;100.00;99475.09;4992294;28;20069;-85
2021/11/01 21:44:26;;;;;;;7.68;2.97;;;;;;;8.75;100.00;99473.66;4978676;28;20471;-87
2021/11/01 21:46:51;;;;;;;5.20;2.70;;;;;;;8.66;100.00;99480.94;4993035;28;20050;-85
2021/11/01 21:49:17;;;;;;;6.70;2.38;;;;;;;8.61;100.00;99472.63;4984034;28;20153;-83
2021/11/01 21:51:44;;;;;;;7.55;3.17;;;;;;;8.63;100.00;99483.13;5010511;28;20072;-86
2021/11/01 21:56:57;;;;;;;6.53;2.65;;;;;;;8.55;100.00;99476.03;4988134;28;20043;-84
2021/11/01 22:09:46;;;;;;;8.20;4.22;;;;;;;8.42;100.00;99475.81;4986362;28;20440;-84
2021/11/01 22:10:17;;;;;;;12.05;6.00;;;;;;;8.31;100.00;99479.72;5003568;28;20052;-84
2021/11/01 22:18:15;;;;;;;9.55;4.90;;;;;;;8.14;100.00;99479.88;5008892;28;20042;-84
2021/11/01 22:20:45;;;;;;;6.28;3.70;;;;;;;8.10;100.00;99477.75;4992362;28;20042;-84
2021/11/01 22:34:26;;;;;;;11.32;4.47;;;;;;;7.99;100.00;99480.84;5008550;28;20124;-83
2021/11/01 22:58:09;;;;;;;8.13;4.97;;;;;;;7.85;100.00;99483.31;5007905;28;20040;-85
2021/11/01 23:00:47;;;;;;;12.73;5.90;;;;;;;7.87;100.00;99478.59;5007775;28;20407;-83
2021/11/01 23:03:28;;;;;;;12.75;6.13;;;;;;;7.87;100.00;99477.75;5004237;28;20097;-83
2021/11/01 23:33:23;;;;;;;8.15;3.88;;;;;;;7.63;100.00;99489.47;4985071;28;20085;-85
2021/11/01 23:35:49;;;;;;;9.30;4.00;;;;;;;7.63;100.00;99492.13;5002789;28;20482;-83
2021/11/01 23:38:16;;;;;;;6.65;3.88;;;;;;;7.56;100.00;99491.16;4998937;28;20049;-85
2021/11/01 23:40:42;;;;;;;12.82;4.72;;;;;;;7.55;100.00;99490.34;4999057;28;20031;-85
2021/11/01 23:43:12;;;;;;;8.27;4.35;;;;;;;7.57;100.00;99498.19;5002443;28;20034;-84
2021/11/01 23:45:38;;;;;;;7.90;4.78;;;;;;;7.58;100.00;99505.16;5003703;28;20145;-84
2021/11/01 23:48:05;;;;;;;11.05;4.20;;;;;;;7.56;100.00;99505.34;4971387;28;20038;-85
2021/11/01 23:50:33;;;;;;;7.10;4.25;;;;;;;7.52;100.00;99503.22;4970643;28;20042;-83
2021/11/01 23:53:12;;;;;;;7.63;4.40;;;;;;;7.45;100.00;99495.91;4970973;28;20033;-85
2021/11/01 23:55:39;;;;;;;8.55;4.60;;;;;;;7.40;100.00;99498.28;5002430;28;20712;-83
2021/11/01 23:58:07;;;;;;;10.63;4.82;;;;;;;7.34;100.00;99498.97;4971104;28;20120;-83
